createdAt,value
2022-12-19T00:07:31.455Z,55.10
2022-12-19T00:12:46.587Z,55.41
2022-12-19T00:18:35.015Z,56.00
2022-12-19T00:23:46.164Z,65.93
2022-12-19T00:28:57.617Z,58.10
2022-12-19T00:34:03.358Z,45.71
2022-12-19T00:39:08.824Z,36.52
2022-12-19T00:51:09.646Z,37.62
2022-12-19T00:56:17.405Z,39.41
2022-12-19T01:01:38.061Z,41.32
2022-12-19T01:06:43.242Z,43.41
2022-12-19T01:12:30.842Z,45.08
2022-12-19T01:17:43.497Z,46.56
2022-12-19T01:22:58.544Z,51.15
2022-12-19T01:28:32.239Z,54.64
2022-12-19T01:34:42.626Z,41.44
2022-12-19T01:53:51.365Z,32.33
2022-12-19T02:05:54.854Z,36.89
2022-12-19T02:11:06.417Z,40.74
2022-12-19T02:22:35.890Z,51.55
2022-12-19T02:47:13.663Z,33.01
2022-12-19T02:53:30.497Z,34.37
2022-12-19T02:59:02.792Z,35.77
2022-12-19T03:09:12.804Z,41.55
2022-12-19T03:20:54.248Z,42.28
2022-12-19T03:26:29.257Z,36.21
2022-12-19T03:31:35.074Z,31.54
2022-12-19T03:36:43.319Z,28.52
2022-12-19T03:42:06.732Z,31.01
2022-12-19T03:47:17.735Z,33.89
2022-12-19T03:52:54.182Z,35.34
2022-12-19T03:58:06.531Z,36.64
2022-12-19T04:03:10.316Z,55.62
2022-12-19T04:08:14.406Z,46.63
2022-12-19T04:13:23.560Z,38.35
2022-12-19T04:18:28.020Z,39.90
2022-12-19T04:23:41.643Z,41.54
2022-12-19T04:28:52.982Z,43.11
2022-12-19T04:33:56.277Z,48.68
2022-12-19T04:38:59.641Z,46.81
2022-12-19T04:44:03.094Z,37.88
2022-12-19T04:49:06.540Z,33.89
2022-12-19T04:54:09.925Z,32.14
2022-12-19T04:59:13.720Z,28.20
2022-12-19T05:04:17.059Z,27.98
2022-12-19T05:09:20.599Z,31.32
2022-12-19T05:14:23.968Z,31.45
2022-12-19T05:19:27.422Z,33.04
2022-12-19T05:24:30.906Z,34.98
2022-12-19T05:29:35.050Z,45.68
2022-12-19T05:34:38.279Z,41.35
2022-12-19T05:39:41.640Z,35.45
2022-12-19T05:44:44.981Z,32.35
2022-12-19T05:49:48.256Z,30.29
2022-12-19T05:54:51.914Z,28.66
2022-12-19T06:00:00.226Z,25.42
2022-12-19T06:05:04.092Z,27.66
2022-12-19T06:10:10.007Z,29.11
2022-12-19T06:15:13.943Z,30.41
2022-12-19T06:20:18.194Z,32.08
2022-12-19T06:25:21.455Z,43.86
2022-12-19T06:30:24.812Z,40.08
2022-12-19T06:35:28.386Z,34.39
2022-12-19T06:40:50.359Z,31.07
2022-12-19T06:45:53.843Z,28.67
2022-12-19T06:50:57.241Z,25.20
2022-12-19T06:56:01.107Z,25.42
2022-12-19T07:01:04.791Z,27.31
2022-12-19T07:06:15.430Z,28.73
2022-12-19T07:11:19.029Z,30.36
2022-12-19T07:16:25.304Z,37.07
2022-12-19T07:21:29.762Z,41.21
2022-12-19T07:26:33.753Z,34.90
2022-12-19T07:31:40.287Z,30.72
2022-12-19T07:36:44.138Z,28.24
2022-12-19T07:41:47.899Z,25.93
2022-12-19T07:46:57.660Z,24.46
2022-12-19T07:52:01.064Z,26.73
2022-12-19T07:57:05.347Z,28.52
2022-12-19T08:02:18.084Z,30.56
2022-12-19T08:07:22.051Z,32.07
2022-12-19T08:12:25.335Z,41.77
2022-12-19T08:17:28.769Z,41.98
2022-12-19T08:22:32.270Z,35.13
2022-12-19T08:27:35.843Z,31.58
2022-12-19T08:32:39.034Z,27.36
2022-12-19T08:37:42.411Z,27.16
2022-12-19T08:42:46.109Z,28.68
2022-12-19T08:47:49.884Z,30.02
2022-12-19T08:52:53.360Z,31.62
2022-12-19T08:57:56.855Z,33.20
2022-12-19T09:03:00.272Z,34.58
2022-12-19T09:08:04.340Z,37.59
2022-12-19T09:13:08.978Z,46.54
2022-12-19T09:18:12.459Z,37.99
2022-12-19T09:23:15.801Z,33.40
2022-12-19T09:28:27.398Z,29.03
2022-12-19T09:33:37.997Z,28.08
2022-12-19T09:38:45.339Z,30.57
2022-12-19T09:43:51.151Z,31.75
2022-12-19T09:48:56.397Z,32.73
2022-12-19T09:54:33.392Z,34.13
2022-12-19T09:59:50.278Z,35.33
2022-12-19T10:05:13.841Z,36.98
2022-12-19T10:12:38.372Z,38.48
2022-12-19T10:16:05.599Z,39.53
2022-12-19T10:22:15.718Z,40.86
2022-12-19T10:27:16.395Z,41.97
2022-12-19T10:32:22.569Z,47.35
2022-12-19T10:37:37.650Z,46.23
2022-12-19T10:42:51.407Z,44.84
2022-12-19T10:47:58.797Z,45.22
2022-12-19T10:58:46.824Z,45.91
2022-12-19T11:03:56.634Z,46.82
2022-12-19T11:09:21.795Z,46.57
2022-12-19T11:17:41.567Z,46.97
2022-12-19T11:28:58.442Z,47.41
2022-12-19T11:29:46.779Z,47.50
2022-12-19T11:48:50.152Z,48.33
2022-12-19T11:54:24.415Z,49.20
2022-12-19T11:59:35.828Z,49.10
2022-12-19T12:05:23.303Z,49.38
2022-12-19T12:15:26.904Z,49.77
2022-12-19T12:30:11.680Z,49.85
2022-12-19T12:31:05.950Z,49.31
2022-12-19T12:31:43.768Z,49.30
2022-12-19T12:35:56.946Z,49.36
2022-12-19T12:38:52.117Z,49.50
2022-12-19T12:44:08.599Z,48.28
2022-12-19T12:49:52.889Z,49.28
2022-12-19T12:55:01.300Z,49.74
2022-12-19T13:00:21.874Z,50.46
2022-12-19T13:05:46.195Z,50.28
2022-12-19T13:10:58.272Z,50.01
2022-12-19T13:16:42.824Z,49.93
2022-12-19T13:22:04.510Z,50.01
2022-12-19T13:27:19.778Z,50.57
2022-12-19T13:32:32.806Z,50.65
2022-12-19T13:39:57.712Z,52.18
2022-12-19T13:43:29.815Z,51.23
2022-12-19T13:49:00.777Z,51.19
2022-12-19T13:54:04.742Z,51.16
2022-12-19T13:59:10.084Z,51.48
2022-12-19T14:04:24.744Z,51.59
2022-12-19T14:11:31.757Z,50.84
2022-12-19T14:15:32.651Z,51.41
2022-12-19T14:22:11.469Z,51.63
2022-12-19T14:28:20.123Z,52.01
2022-12-19T14:33:40.659Z,51.78
2022-12-19T14:39:20.406Z,52.22
2022-12-19T14:43:59.897Z,52.24
2022-12-19T14:54:12.028Z,52.34
2022-12-19T14:59:56.698Z,53.00
2022-12-19T15:05:14.360Z,53.48
2022-12-19T15:11:07.284Z,53.59
2022-12-19T15:16:01.501Z,53.54
2022-12-19T15:21:13.700Z,53.81
2022-12-19T15:26:26.522Z,53.75
2022-12-19T15:31:39.310Z,53.74
2022-12-19T15:36:43.500Z,53.96
2022-12-19T15:41:55.591Z,54.02
2022-12-19T15:47:05.486Z,53.99
2022-12-19T15:52:19.099Z,54.00
2022-12-19T15:57:39.970Z,54.00
2022-12-19T16:08:15.697Z,54.36
2022-12-19T16:13:32.102Z,54.42
2022-12-19T16:18:36.861Z,54.45
2022-12-19T16:23:43.936Z,54.68
2022-12-19T16:28:48.142Z,53.82
2022-12-19T16:33:52.732Z,54.15
2022-12-19T16:38:59.259Z,54.24
2022-12-19T16:44:21.469Z,54.39
2022-12-19T16:49:25.856Z,54.74
2022-12-19T16:55:30.229Z,54.41
2022-12-19T17:00:18.413Z,54.41
2022-12-19T17:06:16.957Z,54.44
2022-12-19T17:11:11.926Z,55.08
2022-12-19T17:16:41.896Z,55.02
2022-12-19T17:21:59.226Z,54.89
2022-12-19T17:27:06.926Z,55.04
2022-12-19T17:32:23.733Z,57.47
2022-12-19T17:37:28.918Z,62.36
2022-12-19T17:42:40.211Z,47.11
2022-12-19T17:47:48.119Z,39.48
2022-12-19T17:52:52.151Z,32.92
2022-12-19T17:58:02.749Z,33.95
2022-12-19T18:03:25.061Z,35.87
2022-12-19T18:08:35.894Z,37.85
2022-12-19T18:13:39.813Z,40.75
2022-12-19T18:18:45.179Z,41.62
2022-12-19T18:23:49.457Z,43.28
2022-12-19T18:28:54.746Z,44.43
2022-12-19T18:34:07.302Z,46.87
2022-12-19T18:39:25.094Z,48.09
2022-12-19T18:44:28.840Z,50.19
2022-12-19T18:49:36.949Z,50.16
2022-12-19T18:54:40.818Z,50.36
2022-12-19T18:59:47.629Z,51.05
2022-12-19T19:04:51.743Z,51.73
2022-12-19T19:09:55.627Z,52.24
2022-12-19T19:15:23.103Z,52.58
2022-12-19T19:20:29.637Z,52.97
2022-12-19T19:25:35.439Z,53.50
2022-12-19T19:31:00.805Z,53.05
2022-12-19T19:36:13.049Z,52.76
2022-12-19T19:41:17.076Z,54.05
2022-12-19T19:46:22.633Z,54.10
2022-12-19T19:51:29.241Z,53.93
2022-12-19T19:56:42.581Z,54.07
2022-12-19T20:01:46.482Z,55.85
2022-12-19T20:06:53.948Z,55.27
2022-12-19T20:11:57.926Z,54.62
2022-12-19T20:17:01.804Z,54.75
2022-12-19T20:22:06.684Z,54.76
2022-12-19T20:27:13.908Z,54.71
2022-12-19T20:32:17.779Z,55.18
2022-12-19T20:37:20.947Z,55.45
2022-12-19T20:42:25.179Z,55.47
2022-12-19T20:47:28.840Z,55.30
2022-12-19T20:52:34.845Z,55.38
2022-12-19T20:57:39.040Z,55.71
2022-12-19T21:03:25.068Z,55.78
2022-12-19T21:08:07.308Z,55.88
2022-12-19T21:13:10.382Z,56.15
2022-12-19T21:18:13.485Z,56.43
2022-12-19T21:23:16.832Z,56.70
2022-12-19T21:28:21.685Z,56.82
2022-12-19T21:33:25.758Z,56.99
2022-12-19T21:38:28.970Z,57.13
2022-12-19T21:43:36.820Z,57.30
2022-12-19T21:48:42.715Z,57.47
2022-12-19T21:53:46.604Z,57.58
2022-12-19T21:58:55.857Z,57.74
2022-12-19T22:04:01.298Z,57.77
2022-12-19T22:09:07.374Z,57.78
2022-12-19T22:14:14.902Z,57.81
2022-12-19T22:19:19.190Z,58.00
2022-12-19T22:24:22.837Z,58.03
2022-12-19T22:29:26.035Z,58.27
2022-12-19T22:34:29.723Z,58.39
2022-12-19T22:39:33.068Z,58.50
2022-12-19T22:44:36.436Z,58.75
2022-12-19T22:49:39.597Z,58.82
2022-12-19T22:54:43.003Z,58.96
2022-12-19T22:59:46.172Z,59.06
2022-12-19T23:04:49.412Z,59.17
2022-12-19T23:09:52.676Z,59.46
2022-12-19T23:14:55.926Z,59.57
2022-12-19T23:19:59.271Z,59.60
2022-12-19T23:25:02.498Z,59.89
2022-12-19T23:30:06.380Z,59.94
2022-12-19T23:35:10.711Z,59.98
2022-12-19T23:40:16.176Z,60.04
2022-12-19T23:45:23.124Z,60.19
2022-12-19T23:50:31.302Z,60.20
2022-12-19T23:55:50.481Z,60.18
